sensor_id;sensor_type;location;lat;lon;timestamp;P1;durP1;ratioP1;P2;durP2;ratioP2
25824;SDS011;13658;44.534;18.694;2023-12-22T00:01:40;192.73;;;89.07;;
25824;SDS011;13658;44.534;18.694;2023-12-22T00:04:06;201.82;;;93.43;;
25824;SDS011;13658;44.534;18.694;2023-12-22T00:06:32;216.60;;;98.55;;
25824;SDS011;13658;44.534;18.694;2023-12-22T00:08:58;230.27;;;102.90;;
25824;SDS011;13658;44.534;18.694;2023-12-22T00:11:24;211.60;;;95.82;;
25824;SDS011;13658;44.534;18.694;2023-12-22T00:13:51;192.52;;;87.55;;
25824;SDS011;13658;44.534;18.694;2023-12-22T00:16:17;172.45;;;80.70;;
25824;SDS011;13658;44.534;18.694;2023-12-22T00:18:42;151.82;;;73.68;;
25824;SDS011;13658;44.534;18.694;2023-12-22T00:21:11;143.57;;;70.05;;
25824;SDS011;13658;44.534;18.694;2023-12-22T00:23:37;137.05;;;64.32;;
25824;SDS011;13658;44.534;18.694;2023-12-22T00:26:05;130.23;;;63.72;;
25824;SDS011;13658;44.534;18.694;2023-12-22T00:28:31;121.95;;;56.00;;
25824;SDS011;13658;44.534;18.694;2023-12-22T00:30:59;124.82;;;59.65;;
25824;SDS011;13658;44.534;18.694;2023-12-22T00:33:25;121.15;;;57.13;;
25824;SDS011;13658;44.534;18.694;2023-12-22T00:35:51;112.20;;;54.28;;
25824;SDS011;13658;44.534;18.694;2023-12-22T00:38:17;120.38;;;57.13;;
25824;SDS011;13658;44.534;18.694;2023-12-22T00:40:43;102.35;;;50.88;;
25824;SDS011;13658;44.534;18.694;2023-12-22T00:43:09;102.45;;;48.30;;
25824;SDS011;13658;44.534;18.694;2023-12-22T00:45:35;104.32;;;47.85;;
25824;SDS011;13658;44.534;18.694;2023-12-22T00:48:01;90.93;;;44.88;;
25824;SDS011;13658;44.534;18.694;2023-12-22T00:50:27;89.55;;;43.20;;
25824;SDS011;13658;44.534;18.694;2023-12-22T00:52:53;91.55;;;43.90;;
25824;SDS011;13658;44.534;18.694;2023-12-22T00:55:18;81.10;;;40.05;;
25824;SDS011;13658;44.534;18.694;2023-12-22T00:57:44;86.28;;;42.72;;
25824;SDS011;13658;44.534;18.694;2023-12-22T01:00:10;83.82;;;39.75;;
25824;SDS011;13658;44.534;18.694;2023-12-22T01:02:37;88.40;;;45.00;;
25824;SDS011;13658;44.534;18.694;2023-12-22T01:05:04;113.18;;;51.55;;
25824;SDS011;13658;44.534;18.694;2023-12-22T01:07:30;104.93;;;50.45;;
25824;SDS011;13658;44.534;18.694;2023-12-22T01:09:56;108.50;;;53.05;;
25824;SDS011;13658;44.534;18.694;2023-12-22T01:12:27;118.82;;;58.75;;
25824;SDS011;13658;44.534;18.694;2023-12-22T01:14:54;126.10;;;61.72;;
25824;SDS011;13658;44.534;18.694;2023-12-22T01:17:20;140.10;;;67.25;;
25824;SDS011;13658;44.534;18.694;2023-12-22T01:19:46;118.60;;;54.72;;
25824;SDS011;13658;44.534;18.694;2023-12-22T01:22:12;101.15;;;46.70;;
25824;SDS011;13658;44.534;18.694;2023-12-22T01:24:38;90.80;;;44.67;;
25824;SDS011;13658;44.534;18.694;2023-12-22T01:27:06;71.75;;;36.80;;
25824;SDS011;13658;44.534;18.694;2023-12-22T01:29:32;75.22;;;36.40;;
25824;SDS011;13658;44.534;18.694;2023-12-22T01:31:58;65.45;;;33.45;;
25824;SDS011;13658;44.534;18.694;2023-12-22T01:34:24;71.88;;;34.53;;
25824;SDS011;13658;44.534;18.694;2023-12-22T01:36:50;74.60;;;37.10;;
25824;SDS011;13658;44.534;18.694;2023-12-22T01:39:16;77.28;;;38.13;;
25824;SDS011;13658;44.534;18.694;2023-12-22T01:41:42;73.07;;;38.17;;
25824;SDS011;13658;44.534;18.694;2023-12-22T01:44:08;73.50;;;35.88;;
25824;SDS011;13658;44.534;18.694;2023-12-22T01:46:34;74.68;;;37.17;;
25824;SDS011;13658;44.534;18.694;2023-12-22T01:49:01;74.45;;;37.17;;
25824;SDS011;13658;44.534;18.694;2023-12-22T01:51:31;78.90;;;38.10;;
25824;SDS011;13658;44.534;18.694;2023-12-22T01:54:02;83.28;;;39.00;;
25824;SDS011;13658;44.534;18.694;2023-12-22T01:56:29;73.50;;;37.50;;
25824;SDS011;13658;44.534;18.694;2023-12-22T01:58:57;77.10;;;36.97;;
25824;SDS011;13658;44.534;18.694;2023-12-22T02:01:24;74.38;;;36.55;;
25824;SDS011;13658;44.534;18.694;2023-12-22T02:03:52;71.75;;;36.67;;
25824;SDS011;13658;44.534;18.694;2023-12-22T02:06:19;76.57;;;37.63;;
25824;SDS011;13658;44.534;18.694;2023-12-22T02:08:46;71.80;;;35.33;;
25824;SDS011;13658;44.534;18.694;2023-12-22T02:11:13;71.90;;;34.67;;
25824;SDS011;13658;44.534;18.694;2023-12-22T02:13:40;65.88;;;33.72;;
25824;SDS011;13658;44.534;18.694;2023-12-22T02:16:11;71.93;;;34.63;;
25824;SDS011;13658;44.534;18.694;2023-12-22T02:18:44;66.03;;;33.15;;
25824;SDS011;13658;44.534;18.694;2023-12-22T02:21:13;65.88;;;32.30;;
25824;SDS011;13658;44.534;18.694;2023-12-22T02:23:39;65.90;;;31.33;;
25824;SDS011;13658;44.534;18.694;2023-12-22T02:26:47;64.38;;;31.10;;
25824;SDS011;13658;44.534;18.694;2023-12-22T02:28:59;65.13;;;31.65;;
25824;SDS011;13658;44.534;18.694;2023-12-22T02:31:44;62.10;;;29.67;;
25824;SDS011;13658;44.534;18.694;2023-12-22T02:34:17;61.97;;;31.52;;
25824;SDS011;13658;44.534;18.694;2023-12-22T02:36:45;56.53;;;30.67;;
25824;SDS011;13658;44.534;18.694;2023-12-22T02:39:13;58.42;;;28.67;;
25824;SDS011;13658;44.534;18.694;2023-12-22T02:41:39;59.03;;;28.77;;
25824;SDS011;13658;44.534;18.694;2023-12-22T02:44:06;56.33;;;28.60;;
25824;SDS011;13658;44.534;18.694;2023-12-22T02:46:33;54.47;;;28.33;;
25824;SDS011;13658;44.534;18.694;2023-12-22T02:48:59;54.83;;;27.77;;
25824;SDS011;13658;44.534;18.694;2023-12-22T02:51:25;45.70;;;25.00;;
25824;SDS011;13658;44.534;18.694;2023-12-22T02:53:51;48.72;;;26.17;;
25824;SDS011;13658;44.534;18.694;2023-12-22T02:56:17;49.83;;;26.25;;
25824;SDS011;13658;44.534;18.694;2023-12-22T02:58:43;53.45;;;25.73;;
25824;SDS011;13658;44.534;18.694;2023-12-22T03:01:09;56.75;;;29.33;;
25824;SDS011;13658;44.534;18.694;2023-12-22T03:03:34;81.90;;;40.28;;
25824;SDS011;13658;44.534;18.694;2023-12-22T03:06:00;77.32;;;37.63;;
25824;SDS011;13658;44.534;18.694;2023-12-22T03:08:26;94.07;;;46.08;;
25824;SDS011;13658;44.534;18.694;2023-12-22T03:10:52;97.82;;;46.95;;
25824;SDS011;13658;44.534;18.694;2023-12-22T03:13:18;134.05;;;59.13;;
25824;SDS011;13658;44.534;18.694;2023-12-22T03:15:44;121.82;;;54.33;;
25824;SDS011;13658;44.534;18.694;2023-12-22T03:18:10;108.38;;;51.60;;
25824;SDS011;13658;44.534;18.694;2023-12-22T03:20:35;78.13;;;37.67;;
25824;SDS011;13658;44.534;18.694;2023-12-22T03:23:01;110.47;;;53.55;;
25824;SDS011;13658;44.534;18.694;2023-12-22T03:25:27;64.03;;;31.13;;
25824;SDS011;13658;44.534;18.694;2023-12-22T03:27:53;57.33;;;28.67;;
25824;SDS011;13658;44.534;18.694;2023-12-22T03:30:19;51.35;;;27.75;;
25824;SDS011;13658;44.534;18.694;2023-12-22T03:32:45;52.20;;;28.20;;
25824;SDS011;13658;44.534;18.694;2023-12-22T03:35:11;54.40;;;29.10;;
25824;SDS011;13658;44.534;18.694;2023-12-22T03:37:37;58.85;;;31.63;;
25824;SDS011;13658;44.534;18.694;2023-12-22T03:40:03;68.78;;;33.80;;
25824;SDS011;13658;44.534;18.694;2023-12-22T03:42:29;58.10;;;29.05;;
25824;SDS011;13658;44.534;18.694;2023-12-22T03:44:55;51.45;;;27.17;;
25824;SDS011;13658;44.534;18.694;2023-12-22T03:47:21;59.03;;;29.73;;
25824;SDS011;13658;44.534;18.694;2023-12-22T03:49:47;61.35;;;32.20;;
25824;SDS011;13658;44.534;18.694;2023-12-22T03:52:13;67.78;;;33.72;;
25824;SDS011;13658;44.534;18.694;2023-12-22T03:54:39;54.42;;;30.10;;
25824;SDS011;13658;44.534;18.694;2023-12-22T03:57:05;57.25;;;30.20;;
25824;SDS011;13658;44.534;18.694;2023-12-22T03:59:31;86.03;;;44.95;;
25824;SDS011;13658;44.534;18.694;2023-12-22T04:01:57;63.85;;;33.00;;
25824;SDS011;13658;44.534;18.694;2023-12-22T04:04:26;71.18;;;37.47;;
25824;SDS011;13658;44.534;18.694;2023-12-22T04:06:53;54.80;;;29.58;;
25824;SDS011;13658;44.534;18.694;2023-12-22T04:09:19;51.38;;;28.25;;
25824;SDS011;13658;44.534;18.694;2023-12-22T04:11:45;59.22;;;30.80;;
25824;SDS011;13658;44.534;18.694;2023-12-22T04:14:11;77.90;;;40.15;;
25824;SDS011;13658;44.534;18.694;2023-12-22T04:16:37;90.25;;;45.95;;
25824;SDS011;13658;44.534;18.694;2023-12-22T04:19:03;99.55;;;51.22;;
25824;SDS011;13658;44.534;18.694;2023-12-22T04:21:29;96.80;;;49.67;;
25824;SDS011;13658;44.534;18.694;2023-12-22T04:23:55;84.22;;;43.45;;
25824;SDS011;13658;44.534;18.694;2023-12-22T04:26:21;89.07;;;43.95;;
25824;SDS011;13658;44.534;18.694;2023-12-22T04:28:47;83.85;;;43.00;;
25824;SDS011;13658;44.534;18.694;2023-12-22T04:31:13;86.07;;;43.00;;
25824;SDS011;13658;44.534;18.694;2023-12-22T04:33:38;72.00;;;37.97;;
25824;SDS011;13658;44.534;18.694;2023-12-22T04:36:04;58.30;;;32.22;;
25824;SDS011;13658;44.534;18.694;2023-12-22T04:38:31;67.47;;;35.80;;
25824;SDS011;13658;44.534;18.694;2023-12-22T04:40:57;59.20;;;33.17;;
25824;SDS011;13658;44.534;18.694;2023-12-22T04:43:23;60.28;;;33.08;;
25824;SDS011;13658;44.534;18.694;2023-12-22T04:45:49;63.83;;;35.10;;
25824;SDS011;13658;44.534;18.694;2023-12-22T04:48:15;63.80;;;35.95;;
25824;SDS011;13658;44.534;18.694;2023-12-22T04:50:41;78.68;;;41.30;;
25824;SDS011;13658;44.534;18.694;2023-12-22T04:53:06;80.30;;;41.90;;
25824;SDS011;13658;44.534;18.694;2023-12-22T04:55:32;75.35;;;40.92;;
25824;SDS011;13658;44.534;18.694;2023-12-22T04:57:58;77.60;;;42.90;;
25824;SDS011;13658;44.534;18.694;2023-12-22T05:00:24;69.90;;;38.85;;
25824;SDS011;13658;44.534;18.694;2023-12-22T05:02:51;75.50;;;39.83;;
25824;SDS011;13658;44.534;18.694;2023-12-22T05:05:17;73.20;;;39.45;;
25824;SDS011;13658;44.534;18.694;2023-12-22T05:07:43;75.53;;;40.90;;
25824;SDS011;13658;44.534;18.694;2023-12-22T05:10:09;70.93;;;40.63;;
25824;SDS011;13658;44.534;18.694;2023-12-22T05:12:35;67.63;;;38.30;;
25824;SDS011;13658;44.534;18.694;2023-12-22T05:15:01;72.70;;;39.90;;
25824;SDS011;13658;44.534;18.694;2023-12-22T05:17:27;73.45;;;39.25;;
25824;SDS011;13658;44.534;18.694;2023-12-22T05:19:53;84.65;;;44.50;;
25824;SDS011;13658;44.534;18.694;2023-12-22T05:22:19;80.78;;;45.63;;
25824;SDS011;13658;44.534;18.694;2023-12-22T05:24:45;90.45;;;48.88;;
25824;SDS011;13658;44.534;18.694;2023-12-22T05:27:11;89.05;;;49.47;;
25824;SDS011;13658;44.534;18.694;2023-12-22T05:29:37;96.43;;;49.40;;
25824;SDS011;13658;44.534;18.694;2023-12-22T05:32:03;86.57;;;47.60;;
25824;SDS011;13658;44.534;18.694;2023-12-22T05:34:29;89.80;;;50.33;;
25824;SDS011;13658;44.534;18.694;2023-12-22T05:36:56;93.38;;;52.25;;
25824;SDS011;13658;44.534;18.694;2023-12-22T05:39:22;91.07;;;49.97;;
25824;SDS011;13658;44.534;18.694;2023-12-22T05:41:48;90.22;;;51.67;;
25824;SDS011;13658;44.534;18.694;2023-12-22T05:44:14;103.55;;;55.33;;
25824;SDS011;13658;44.534;18.694;2023-12-22T05:46:40;94.63;;;51.42;;
25824;SDS011;13658;44.534;18.694;2023-12-22T05:49:06;83.65;;;45.45;;
25824;SDS011;13658;44.534;18.694;2023-12-22T05:51:38;72.78;;;41.85;;
25824;SDS011;13658;44.534;18.694;2023-12-22T05:54:05;81.28;;;44.97;;
25824;SDS011;13658;44.534;18.694;2023-12-22T05:56:32;76.68;;;43.70;;
25824;SDS011;13658;44.534;18.694;2023-12-22T05:58:59;87.38;;;47.00;;
25824;SDS011;13658;44.534;18.694;2023-12-22T06:01:25;82.10;;;46.30;;
25824;SDS011;13658;44.534;18.694;2023-12-22T06:03:51;86.30;;;48.08;;
25824;SDS011;13658;44.534;18.694;2023-12-22T06:06:17;83.75;;;48.70;;
25824;SDS011;13658;44.534;18.694;2023-12-22T06:08:43;80.90;;;46.42;;
25824;SDS011;13658;44.534;18.694;2023-12-22T06:11:09;84.10;;;48.10;;
25824;SDS011;13658;44.534;18.694;2023-12-22T06:13:35;78.45;;;44.78;;
25824;SDS011;13658;44.534;18.694;2023-12-22T06:16:01;86.85;;;46.88;;
25824;SDS011;13658;44.534;18.694;2023-12-22T06:18:27;78.10;;;43.70;;
25824;SDS011;13658;44.534;18.694;2023-12-22T06:20:53;81.57;;;44.42;;
25824;SDS011;13658;44.534;18.694;2023-12-22T06:23:19;72.75;;;42.85;;
25824;SDS011;13658;44.534;18.694;2023-12-22T06:25:45;76.60;;;45.88;;
25824;SDS011;13658;44.534;18.694;2023-12-22T06:28:14;80.68;;;47.05;;
25824;SDS011;13658;44.534;18.694;2023-12-22T06:30:42;68.03;;;42.83;;
25824;SDS011;13658;44.534;18.694;2023-12-22T06:33:08;52.75;;;32.67;;
25824;SDS011;13658;44.534;18.694;2023-12-22T06:35:34;59.65;;;35.30;;
25824;SDS011;13658;44.534;18.694;2023-12-22T06:38:00;52.75;;;31.50;;
25824;SDS011;13658;44.534;18.694;2023-12-22T06:40:30;60.08;;;33.78;;
25824;SDS011;13658;44.534;18.694;2023-12-22T06:42:56;61.22;;;35.90;;
25824;SDS011;13658;44.534;18.694;2023-12-22T06:45:22;59.17;;;35.50;;
25824;SDS011;13658;44.534;18.694;2023-12-22T06:47:48;53.95;;;32.65;;
25824;SDS011;13658;44.534;18.694;2023-12-22T06:50:14;42.67;;;24.80;;
25824;SDS011;13658;44.534;18.694;2023-12-22T06:52:40;46.83;;;29.65;;
25824;SDS011;13658;44.534;18.694;2023-12-22T06:55:06;45.25;;;28.95;;
25824;SDS011;13658;44.534;18.694;2023-12-22T06:57:32;36.78;;;24.48;;
25824;SDS011;13658;44.534;18.694;2023-12-22T06:59:58;32.20;;;20.65;;
25824;SDS011;13658;44.534;18.694;2023-12-22T07:02:25;33.25;;;22.02;;
25824;SDS011;13658;44.534;18.694;2023-12-22T07:07:50;32.72;;;21.30;;
25824;SDS011;13658;44.534;18.694;2023-12-22T07:10:16;34.58;;;21.50;;
25824;SDS011;13658;44.534;18.694;2023-12-22T07:12:42;37.03;;;20.30;;
25824;SDS011;13658;44.534;18.694;2023-12-22T07:15:08;39.13;;;22.02;;
25824;SDS011;13658;44.534;18.694;2023-12-22T07:17:34;36.50;;;20.02;;
25824;SDS011;13658;44.534;18.694;2023-12-22T07:20:00;45.60;;;24.55;;
25824;SDS011;13658;44.534;18.694;2023-12-22T07:22:28;37.95;;;22.60;;
25824;SDS011;13658;44.534;18.694;2023-12-22T07:24:54;30.17;;;19.25;;
25824;SDS011;13658;44.534;18.694;2023-12-22T07:27:21;32.58;;;19.38;;
25824;SDS011;13658;44.534;18.694;2023-12-22T07:29:47;57.58;;;30.00;;
25824;SDS011;13658;44.534;18.694;2023-12-22T07:32:13;81.18;;;44.97;;
25824;SDS011;13658;44.534;18.694;2023-12-22T07:34:39;77.75;;;42.58;;
25824;SDS011;13658;44.534;18.694;2023-12-22T07:37:04;65.53;;;36.22;;
25824;SDS011;13658;44.534;18.694;2023-12-22T07:39:30;65.90;;;39.47;;
25824;SDS011;13658;44.534;18.694;2023-12-22T07:41:56;53.60;;;32.30;;
25824;SDS011;13658;44.534;18.694;2023-12-22T07:44:22;73.80;;;42.97;;
25824;SDS011;13658;44.534;18.694;2023-12-22T07:46:57;64.45;;;37.78;;
25824;SDS011;13658;44.534;18.694;2023-12-22T07:49:25;56.75;;;32.47;;
25824;SDS011;13658;44.534;18.694;2023-12-22T07:51:52;61.38;;;38.85;;
25824;SDS011;13658;44.534;18.694;2023-12-22T07:54:18;61.67;;;38.70;;
25824;SDS011;13658;44.534;18.694;2023-12-22T07:56:59;54.53;;;33.17;;
25824;SDS011;13658;44.534;18.694;2023-12-22T07:59:25;59.50;;;35.55;;
25824;SDS011;13658;44.534;18.694;2023-12-22T08:01:51;55.25;;;34.20;;
25824;SDS011;13658;44.534;18.694;2023-12-22T08:04:20;66.15;;;39.47;;
25824;SDS011;13658;44.534;18.694;2023-12-22T08:06:49;64.65;;;36.80;;
25824;SDS011;13658;44.534;18.694;2023-12-22T08:09:15;52.38;;;30.70;;
25824;SDS011;13658;44.534;18.694;2023-12-22T08:11:56;51.42;;;29.52;;
25824;SDS011;13658;44.534;18.694;2023-12-22T08:14:22;48.95;;;27.90;;
25824;SDS011;13658;44.534;18.694;2023-12-22T08:16:51;49.75;;;29.17;;
25824;SDS011;13658;44.534;18.694;2023-12-22T08:19:17;59.38;;;35.35;;
25824;SDS011;13658;44.534;18.694;2023-12-22T08:21:53;60.65;;;34.63;;
25824;SDS011;13658;44.534;18.694;2023-12-22T08:24:20;71.95;;;42.97;;
25824;SDS011;13658;44.534;18.694;2023-12-22T08:26:46;84.50;;;52.67;;
25824;SDS011;13658;44.534;18.694;2023-12-22T08:29:14;86.93;;;59.30;;
25824;SDS011;13658;44.534;18.694;2023-12-22T08:31:56;74.50;;;46.08;;
25824;SDS011;13658;44.534;18.694;2023-12-22T08:34:22;63.85;;;41.22;;
25824;SDS011;13658;44.534;18.694;2023-12-22T08:36:51;60.80;;;37.92;;
25824;SDS011;13658;44.534;18.694;2023-12-22T08:39:26;60.28;;;35.83;;
25824;SDS011;13658;44.534;18.694;2023-12-22T08:41:52;56.00;;;33.63;;
25824;SDS011;13658;44.534;18.694;2023-12-22T08:44:21;57.22;;;35.30;;
25824;SDS011;13658;44.534;18.694;2023-12-22T08:46:47;56.47;;;36.75;;
25824;SDS011;13658;44.534;18.694;2023-12-22T08:49:16;60.63;;;38.40;;
25824;SDS011;13658;44.534;18.694;2023-12-22T08:51:45;65.82;;;38.72;;
25824;SDS011;13658;44.534;18.694;2023-12-22T08:54:11;67.82;;;40.70;;
25824;SDS011;13658;44.534;18.694;2023-12-22T08:56:36;73.97;;;44.92;;
25824;SDS011;13658;44.534;18.694;2023-12-22T08:59:02;81.80;;;47.83;;
25824;SDS011;13658;44.534;18.694;2023-12-22T09:01:28;88.60;;;52.75;;
25824;SDS011;13658;44.534;18.694;2023-12-22T09:03:54;75.68;;;47.08;;
25824;SDS011;13658;44.534;18.694;2023-12-22T09:06:21;81.55;;;48.75;;
25824;SDS011;13658;44.534;18.694;2023-12-22T09:08:47;86.60;;;50.92;;
25824;SDS011;13658;44.534;18.694;2023-12-22T09:11:16;76.68;;;45.53;;
25824;SDS011;13658;44.534;18.694;2023-12-22T09:13:43;79.70;;;47.42;;
25824;SDS011;13658;44.534;18.694;2023-12-22T09:16:09;73.07;;;44.92;;
25824;SDS011;13658;44.534;18.694;2023-12-22T09:18:37;69.60;;;42.30;;
25824;SDS011;13658;44.534;18.694;2023-12-22T09:21:03;83.28;;;47.85;;
25824;SDS011;13658;44.534;18.694;2023-12-22T09:23:29;87.43;;;51.83;;
25824;SDS011;13658;44.534;18.694;2023-12-22T09:25:55;85.90;;;50.13;;
25824;SDS011;13658;44.534;18.694;2023-12-22T09:28:20;79.50;;;45.75;;
25824;SDS011;13658;44.534;18.694;2023-12-22T09:30:46;74.00;;;44.97;;
25824;SDS011;13658;44.534;18.694;2023-12-22T09:33:12;73.22;;;43.22;;
25824;SDS011;13658;44.534;18.694;2023-12-22T09:35:38;74.00;;;42.97;;
25824;SDS011;13658;44.534;18.694;2023-12-22T09:38:08;64.38;;;36.53;;
25824;SDS011;13658;44.534;18.694;2023-12-22T09:40:35;76.68;;;46.95;;
25824;SDS011;13658;44.534;18.694;2023-12-22T09:43:04;70.63;;;43.55;;
25824;SDS011;13658;44.534;18.694;2023-12-22T09:45:32;61.72;;;35.72;;
25824;SDS011;13658;44.534;18.694;2023-12-22T09:47:59;59.80;;;36.85;;
25824;SDS011;13658;44.534;18.694;2023-12-22T09:50:26;56.70;;;34.30;;
25824;SDS011;13658;44.534;18.694;2023-12-22T09:52:52;38.95;;;23.38;;
25824;SDS011;13658;44.534;18.694;2023-12-22T09:55:20;35.42;;;23.02;;
25824;SDS011;13658;44.534;18.694;2023-12-22T09:57:47;48.53;;;27.80;;
25824;SDS011;13658;44.534;18.694;2023-12-22T10:00:17;38.20;;;23.15;;
25824;SDS011;13658;44.534;18.694;2023-12-22T10:02:44;59.53;;;32.75;;
25824;SDS011;13658;44.534;18.694;2023-12-22T10:05:11;51.92;;;31.67;;
25824;SDS011;13658;44.534;18.694;2023-12-22T10:07:44;52.15;;;30.30;;
25824;SDS011;13658;44.534;18.694;2023-12-22T10:10:26;63.65;;;38.83;;
25824;SDS011;13658;44.534;18.694;2023-12-22T10:12:54;69.88;;;42.30;;
25824;SDS011;13658;44.534;18.694;2023-12-22T10:15:21;70.45;;;42.42;;
25824;SDS011;13658;44.534;18.694;2023-12-22T10:17:54;72.55;;;46.97;;
25824;SDS011;13658;44.534;18.694;2023-12-22T10:20:20;72.60;;;45.15;;
25824;SDS011;13658;44.534;18.694;2023-12-22T10:22:47;74.57;;;46.88;;
25824;SDS011;13658;44.534;18.694;2023-12-22T10:25:19;89.72;;;54.00;;
25824;SDS011;13658;44.534;18.694;2023-12-22T10:27:55;78.53;;;45.97;;
25824;SDS011;13658;44.534;18.694;2023-12-22T10:30:22;75.30;;;46.63;;
25824;SDS011;13658;44.534;18.694;2023-12-22T10:32:52;79.38;;;48.42;;
25824;SDS011;13658;44.534;18.694;2023-12-22T10:35:19;80.97;;;49.78;;
25824;SDS011;13658;44.534;18.694;2023-12-22T10:37:46;79.28;;;48.58;;
25824;SDS011;13658;44.534;18.694;2023-12-22T10:40:13;82.43;;;48.83;;
25824;SDS011;13658;44.534;18.694;2023-12-22T10:42:41;75.93;;;47.40;;
25824;SDS011;13658;44.534;18.694;2023-12-22T10:45:08;76.78;;;47.55;;
25824;SDS011;13658;44.534;18.694;2023-12-22T10:47:34;72.05;;;44.30;;
25824;SDS011;13658;44.534;18.694;2023-12-22T10:50:03;74.57;;;45.95;;
25824;SDS011;13658;44.534;18.694;2023-12-22T10:52:29;73.03;;;46.08;;
25824;SDS011;13658;44.534;18.694;2023-12-22T10:54:57;79.60;;;48.05;;
25824;SDS011;13658;44.534;18.694;2023-12-22T10:57:26;75.85;;;47.40;;
25824;SDS011;13658;44.534;18.694;2023-12-22T11:00:07;86.45;;;51.55;;
25824;SDS011;13658;44.534;18.694;2023-12-22T11:02:35;71.03;;;42.35;;
25824;SDS011;13658;44.534;18.694;2023-12-22T11:05:16;71.82;;;43.63;;
25824;SDS011;13658;44.534;18.694;2023-12-22T11:07:51;70.88;;;44.03;;
25824;SDS011;13658;44.534;18.694;2023-12-22T11:10:32;52.40;;;34.80;;
25824;SDS011;13658;44.534;18.694;2023-12-22T11:13:07;51.83;;;32.17;;
25824;SDS011;13658;44.534;18.694;2023-12-22T11:15:35;53.15;;;31.98;;
25824;SDS011;13658;44.534;18.694;2023-12-22T11:18:03;59.35;;;36.72;;
25824;SDS011;13658;44.534;18.694;2023-12-22T11:20:30;50.45;;;33.15;;
25824;SDS011;13658;44.534;18.694;2023-12-22T11:22:59;56.53;;;35.95;;
25824;SDS011;13658;44.534;18.694;2023-12-22T11:25:26;52.00;;;32.63;;
25824;SDS011;13658;44.534;18.694;2023-12-22T11:27:56;57.50;;;34.95;;
25824;SDS011;13658;44.534;18.694;2023-12-22T11:30:24;44.75;;;27.58;;
25824;SDS011;13658;44.534;18.694;2023-12-22T11:32:53;53.97;;;31.65;;
25824;SDS011;13658;44.534;18.694;2023-12-22T11:35:20;57.40;;;35.58;;
25824;SDS011;13658;44.534;18.694;2023-12-22T11:37:49;49.92;;;31.08;;
25824;SDS011;13658;44.534;18.694;2023-12-22T11:40:15;47.45;;;29.42;;
25824;SDS011;13658;44.534;18.694;2023-12-22T11:42:45;46.20;;;28.80;;
25824;SDS011;13658;44.534;18.694;2023-12-22T11:45:15;45.17;;;27.75;;
25824;SDS011;13658;44.534;18.694;2023-12-22T11:47:44;48.38;;;29.13;;
25824;SDS011;13658;44.534;18.694;2023-12-22T11:50:27;52.42;;;31.65;;
25824;SDS011;13658;44.534;18.694;2023-12-22T11:52:55;52.47;;;31.50;;
25824;SDS011;13658;44.534;18.694;2023-12-22T11:58:38;42.03;;;27.58;;
25824;SDS011;13658;44.534;18.694;2023-12-22T12:01:26;48.92;;;33.13;;
25824;SDS011;13658;44.534;18.694;2023-12-22T12:03:57;29.65;;;18.40;;
25824;SDS011;13658;44.534;18.694;2023-12-22T12:08:58;28.85;;;15.90;;
25824;SDS011;13658;44.534;18.694;2023-12-22T12:14:32;59.67;;;35.85;;
25824;SDS011;13658;44.534;18.694;2023-12-22T12:17:03;54.03;;;32.00;;
25824;SDS011;13658;44.534;18.694;2023-12-22T12:19:40;51.08;;;30.17;;
25824;SDS011;13658;44.534;18.694;2023-12-22T12:22:13;71.55;;;38.92;;
25824;SDS011;13658;44.534;18.694;2023-12-22T12:24:49;56.85;;;34.00;;
25824;SDS011;13658;44.534;18.694;2023-12-22T12:27:18;60.92;;;34.13;;
25824;SDS011;13658;44.534;18.694;2023-12-22T12:29:44;78.72;;;43.63;;
25824;SDS011;13658;44.534;18.694;2023-12-22T12:32:12;62.60;;;36.55;;
25824;SDS011;13658;44.534;18.694;2023-12-22T12:34:42;58.88;;;35.97;;
25824;SDS011;13658;44.534;18.694;2023-12-22T12:37:11;59.88;;;36.45;;
25824;SDS011;13658;44.534;18.694;2023-12-22T12:39:40;44.90;;;26.42;;
25824;SDS011;13658;44.534;18.694;2023-12-22T12:42:08;38.33;;;22.60;;
25824;SDS011;13658;44.534;18.694;2023-12-22T12:44:43;32.13;;;19.35;;
25824;SDS011;13658;44.534;18.694;2023-12-22T12:47:19;43.83;;;26.40;;
25824;SDS011;13658;44.534;18.694;2023-12-22T12:49:56;39.67;;;23.38;;
25824;SDS011;13658;44.534;18.694;2023-12-22T12:52:23;30.42;;;19.13;;
25824;SDS011;13658;44.534;18.694;2023-12-22T12:54:50;26.73;;;16.92;;
25824;SDS011;13658;44.534;18.694;2023-12-22T12:57:20;32.17;;;17.02;;
25824;SDS011;13658;44.534;18.694;2023-12-22T12:59:49;28.92;;;17.42;;
25824;SDS011;13658;44.534;18.694;2023-12-22T13:02:16;26.63;;;15.30;;
25824;SDS011;13658;44.534;18.694;2023-12-22T13:04:46;23.85;;;15.27;;
25824;SDS011;13658;44.534;18.694;2023-12-22T13:07:22;24.10;;;14.02;;
25824;SDS011;13658;44.534;18.694;2023-12-22T13:09:56;30.15;;;16.67;;
25824;SDS011;13658;44.534;18.694;2023-12-22T13:12:22;25.35;;;15.13;;
25824;SDS011;13658;44.534;18.694;2023-12-22T13:14:49;27.38;;;16.52;;
25824;SDS011;13658;44.534;18.694;2023-12-22T13:17:21;30.17;;;18.13;;
25824;SDS011;13658;44.534;18.694;2023-12-22T13:19:47;29.17;;;17.40;;
25824;SDS011;13658;44.534;18.694;2023-12-22T13:22:16;28.08;;;17.15;;
25824;SDS011;13658;44.534;18.694;2023-12-22T13:24:55;31.38;;;18.58;;
25824;SDS011;13658;44.534;18.694;2023-12-22T13:27:23;33.10;;;19.30;;
25824;SDS011;13658;44.534;18.694;2023-12-22T13:29:48;33.63;;;21.08;;
25824;SDS011;13658;44.534;18.694;2023-12-22T13:32:17;35.45;;;19.10;;
25824;SDS011;13658;44.534;18.694;2023-12-22T13:34:48;32.85;;;19.25;;
25824;SDS011;13658;44.534;18.694;2023-12-22T13:37:19;32.40;;;19.42;;
25824;SDS011;13658;44.534;18.694;2023-12-22T13:39:45;28.63;;;17.05;;
25824;SDS011;13658;44.534;18.694;2023-12-22T13:42:18;27.50;;;17.70;;
25824;SDS011;13658;44.534;18.694;2023-12-22T13:44:47;27.43;;;16.97;;
25824;SDS011;13658;44.534;18.694;2023-12-22T13:47:18;30.25;;;17.40;;
25824;SDS011;13658;44.534;18.694;2023-12-22T13:49:44;26.33;;;17.27;;
25824;SDS011;13658;44.534;18.694;2023-12-22T13:52:29;28.98;;;18.52;;
25824;SDS011;13658;44.534;18.694;2023-12-22T13:55:02;28.95;;;17.63;;
25824;SDS011;13658;44.534;18.694;2023-12-22T13:57:40;25.05;;;16.88;;
25824;SDS011;13658;44.534;18.694;2023-12-22T14:00:24;30.27;;;17.95;;
25824;SDS011;13658;44.534;18.694;2023-12-22T14:02:50;28.58;;;15.77;;
25824;SDS011;13658;44.534;18.694;2023-12-22T14:05:19;29.92;;;17.60;;
25824;SDS011;13658;44.534;18.694;2023-12-22T14:07:46;27.98;;;16.77;;
25824;SDS011;13658;44.534;18.694;2023-12-22T14:10:12;26.35;;;15.43;;
25824;SDS011;13658;44.534;18.694;2023-12-22T14:12:39;25.85;;;15.65;;
25824;SDS011;13658;44.534;18.694;2023-12-22T14:15:06;30.48;;;17.02;;
25824;SDS011;13658;44.534;18.694;2023-12-22T14:17:33;43.22;;;22.77;;
25824;SDS011;13658;44.534;18.694;2023-12-22T14:19:59;35.08;;;19.52;;
25824;SDS011;13658;44.534;18.694;2023-12-22T14:22:25;37.65;;;20.00;;
25824;SDS011;13658;44.534;18.694;2023-12-22T14:24:53;38.50;;;21.42;;